首页
METAR-TAF:

METAR-TAF

机场 :

龍杜, 纳米比亚

纬度: 17-57-20S, 经度: 019-43-25E, 海拔: 1106米

当前天气观测

该预报发布于55分钟前的22:00 UTC
风速3节,风向东南
温度 13°C
湿度 30%
气压 1025 hPa

METAR: FYRU 152200Z AUTO 14003KT //// // ////// 13/M04 Q1025

时间: 00:55 (22:55 UTC)

预报

该预报发布于5小时和55分钟前的17:00 UTC
预报有效从15日的 18点(UTC)到 16日的 03点(UTC)
风速6节,风向东转东南
能见度10公里或以上
1500米以下无云,无积雨云

TAF: FYRU 151700Z 1518/1603 11006KT CAVOK

超过4000个机场的气象观测和天气预报(METAR&TAF报告)。

可查询的气象台以黄色和红色小点在地图上表示。

将鼠标移到小点上方,可查看气象台名称。

然后点击查看天气观测和预报。

如需切换地图:点击带黑十字的绿色按钮放大地图;点击带横线的绿色按钮缩小地图;或者点击绿色箭头查看邻近地区的地图。


METAR-TAF: